Time;durP1;ratioP1;P1;durP2;ratioP2;P2;SDS_P1;SDS_P2;PMS_P1;PMS_P2;Temp;Humidity;BMP_temperature;BMP_pressure;BME280_temperature;BME280_humidity;BME280_pressure;Samples;Min_cycle;Max_cycle;Signal;HPM_P1;HPM_P2
2023/03/31 00:02:06;;;;;;;8.75;4.28;;;15.30;99.90;;;;;;4952731;28;20036;-86
2023/03/31 00:04:32;;;;;;;9.73;4.40;;;15.20;99.90;;;;;;4953817;28;20469;-86
2023/03/31 00:06:57;;;;;;;8.18;5.13;;;15.20;99.90;;;;;;4953636;28;20032;-86
2023/03/31 00:09:23;;;;;;;8.95;4.85;;;15.20;99.90;;;;;;4953206;28;20034;-86
2023/03/31 00:11:50;;;;;;;7.30;5.05;;;15.20;99.90;;;;;;4953536;28;20034;-86
2023/03/31 00:14:18;;;;;;;6.95;4.55;;;15.20;99.90;;;;;;4953390;28;20028;-86
2023/03/31 00:16:44;;;;;;;7.00;4.72;;;15.30;99.90;;;;;;4953357;28;20035;-86
2023/03/31 00:19:16;;;;;;;7.50;4.90;;;15.30;99.90;;;;;;4952179;28;20027;-86
2023/03/31 00:21:46;;;;;;;9.13;4.47;;;15.30;99.90;;;;;;4953544;28;20406;-85
2023/03/31 00:24:13;;;;;;;10.88;5.07;;;15.20;99.90;;;;;;4953169;28;20030;-86
2023/03/31 00:26:39;;;;;;;10.50;4.78;;;15.20;99.90;;;;;;4943784;28;20051;-86
2023/03/31 00:29:06;;;;;;;9.63;4.70;;;15.10;99.90;;;;;;4933708;29;20032;-86
2023/03/31 00:31:33;;;;;;;10.02;4.80;;;15.10;99.90;;;;;;4934509;29;20048;-86
2023/03/31 00:33:58;;;;;;;10.15;4.80;;;15.00;99.90;;;;;;4934179;29;20035;-86
2023/03/31 00:36:28;;;;;;;7.63;4.43;;;15.10;99.90;;;;;;4933933;29;20486;-86
2023/03/31 00:38:59;;;;;;;11.98;5.20;;;15.10;99.90;;;;;;4933567;29;20051;-86
2023/03/31 00:41:26;;;;;;;8.68;4.78;;;15.10;99.90;;;;;;4933988;29;20032;-87
2023/03/31 00:44:01;;;;;;;11.15;4.90;;;15.10;99.90;;;;;;4933785;29;20082;-86
2023/03/31 00:46:33;;;;;;;12.70;5.07;;;15.10;99.90;;;;;;4948389;29;20031;-86
2023/03/31 00:48:59;;;;;;;8.55;5.07;;;15.20;99.90;;;;;;4952988;28;20028;-86
2023/03/31 00:51:31;;;;;;;9.38;4.95;;;15.10;99.90;;;;;;4953361;28;20038;-86
2023/03/31 00:54:00;;;;;;;9.30;5.05;;;15.10;99.90;;;;;;4953009;28;20110;-86
2023/03/31 00:56:30;;;;;;;9.75;4.88;;;15.10;99.90;;;;;;4951367;28;20122;-86
2023/03/31 00:59:00;;;;;;;11.90;4.75;;;15.10;99.90;;;;;;4953182;28;20031;-86
2023/03/31 01:01:26;;;;;;;9.15;4.68;;;15.00;99.90;;;;;;4952757;28;20081;-85
2023/03/31 01:03:52;;;;;;;13.02;5.50;;;15.00;99.90;;;;;;4953100;28;20023;-86
2023/03/31 01:06:18;;;;;;;12.10;5.63;;;15.00;99.90;;;;;;4952245;28;20534;-86
2023/03/31 01:08:47;;;;;;;12.00;5.88;;;14.90;99.90;;;;;;4951428;29;20027;-86
2023/03/31 01:11:16;;;;;;;11.98;5.43;;;14.90;99.90;;;;;;4952615;28;20023;-87
2023/03/31 01:13:44;;;;;;;9.25;5.60;;;14.80;99.90;;;;;;4952690;28;20286;-86
2023/03/31 01:16:10;;;;;;;9.02;5.63;;;14.80;99.90;;;;;;4952551;28;20047;-85
2023/03/31 01:18:36;;;;;;;8.27;5.40;;;14.80;99.90;;;;;;4951388;28;20186;-86
2023/03/31 01:21:14;;;;;;;10.07;5.22;;;14.80;99.90;;;;;;4950744;29;20039;-86
2023/03/31 01:24:01;;;;;;;7.90;5.55;;;14.70;99.90;;;;;;4952788;28;20069;-86
2023/03/31 01:26:50;;;;;;;11.70;5.32;;;14.70;99.90;;;;;;4944051;28;20492;-86
2023/03/31 01:29:45;;;;;;;8.05;5.13;;;14.70;99.90;;;;;;4933184;29;20440;-86
2023/03/31 01:32:38;;;;;;;8.32;5.60;;;14.70;99.90;;;;;;4933174;29;20034;-86
2023/03/31 01:35:19;;;;;;;11.00;5.20;;;14.80;99.90;;;;;;4931611;29;20027;-86
2023/03/31 01:38:06;;;;;;;9.13;5.28;;;14.70;99.90;;;;;;4933114;29;20071;-86
2023/03/31 01:41:02;;;;;;;13.82;6.07;;;14.70;99.90;;;;;;4932234;29;20024;-86
2023/03/31 01:43:34;;;;;;;8.48;4.65;;;14.70;99.90;;;;;;4932485;29;20089;-86
2023/03/31 01:46:02;;;;;;;10.95;5.10;;;14.70;99.90;;;;;;4945149;29;20031;-85
2023/03/31 01:48:44;;;;;;;8.18;5.55;;;14.80;99.90;;;;;;4951960;28;20063;-86
2023/03/31 01:51:25;;;;;;;10.02;5.28;;;14.80;99.90;;;;;;4951927;28;20027;-85
2023/03/31 01:54:11;;;;;;;10.25;5.20;;;14.80;99.90;;;;;;4951946;28;20047;-85
2023/03/31 01:56:41;;;;;;;11.43;5.00;;;14.80;99.90;;;;;;4950325;29;20443;-86
2023/03/31 01:59:13;;;;;;;8.05;4.90;;;14.80;99.90;;;;;;4950804;28;20027;-87
2023/03/31 02:01:56;;;;;;;15.35;5.50;;;14.80;99.90;;;;;;4950377;28;20031;-87
2023/03/31 02:04:32;;;;;;;8.63;4.93;;;14.80;99.90;;;;;;4950403;29;20027;-87
2023/03/31 02:07:13;;;;;;;11.98;5.28;;;14.80;99.90;;;;;;4951755;28;20101;-87
2023/03/31 02:09:44;;;;;;;11.65;5.38;;;14.80;99.90;;;;;;4951881;28;20054;-87
2023/03/31 02:12:11;;;;;;;12.77;5.22;;;14.70;99.90;;;;;;4952279;28;20052;-87
2023/03/31 02:14:43;;;;;;;9.38;4.57;;;14.70;99.90;;;;;;4951262;28;20032;-87
2023/03/31 02:17:16;;;;;;;11.73;5.20;;;14.60;99.90;;;;;;4952403;28;20424;-87
2023/03/31 02:19:44;;;;;;;8.60;4.68;;;14.60;99.90;;;;;;4951333;28;20023;-87
2023/03/31 02:22:12;;;;;;;9.65;5.40;;;14.60;99.90;;;;;;4951830;28;20442;-87
2023/03/31 02:24:39;;;;;;;11.65;4.90;;;14.50;99.90;;;;;;4951925;28;20040;-87
2023/03/31 02:27:10;;;;;;;10.50;4.85;;;14.50;99.90;;;;;;4938385;28;20059;-88
2023/03/31 02:29:36;;;;;;;9.07;4.93;;;14.50;99.90;;;;;;4932420;29;20030;-87
2023/03/31 02:32:40;;;;;;;10.63;5.28;;;14.50;99.90;;;;;;4932573;29;20331;-87
2023/03/31 02:35:11;;;;;;;11.30;5.22;;;14.50;99.90;;;;;;4932021;29;20032;-87
2023/03/31 02:37:37;;;;;;;10.15;5.10;;;14.40;99.90;;;;;;4931318;29;20047;-87
2023/03/31 02:40:09;;;;;;;15.35;6.25;;;14.40;99.90;;;;;;4932350;29;20036;-87
2023/03/31 02:42:36;;;;;;;9.75;4.93;;;14.30;99.90;;;;;;4933042;29;20532;-86
2023/03/31 02:45:26;;;;;;;8.60;4.68;;;14.30;99.90;;;;;;4937149;29;20431;-87
2023/03/31 02:47:52;;;;;;;11.10;5.15;;;14.30;99.90;;;;;;4949883;28;20035;-87
2023/03/31 02:50:24;;;;;;;11.40;5.03;;;14.30;99.90;;;;;;4951383;28;20035;-87
2023/03/31 02:53:05;;;;;;;9.57;5.15;;;14.30;99.90;;;;;;4951301;28;20031;-87
2023/03/31 02:55:51;;;;;;;10.70;4.93;;;14.30;99.90;;;;;;4951298;28;20081;-87
2023/03/31 02:58:36;;;;;;;13.70;5.45;;;14.30;99.90;;;;;;4949954;29;20405;-88
2023/03/31 03:01:32;;;;;;;11.65;5.07;;;14.30;99.90;;;;;;4950063;29;20051;-87
2023/03/31 03:04:16;;;;;;;10.65;4.72;;;14.30;99.90;;;;;;4949561;28;20031;-87
2023/03/31 03:06:56;;;;;;;11.73;4.85;;;14.30;99.90;;;;;;4950382;28;20035;-87
2023/03/31 03:09:48;;;;;;;10.88;4.50;;;14.40;99.90;;;;;;4951554;28;20424;-87
2023/03/31 03:12:23;;;;;;;12.30;4.28;;;14.30;99.90;;;;;;4951108;28;20027;-87
2023/03/31 03:15:01;;;;;;;10.68;4.28;;;14.40;99.90;;;;;;4951102;28;20436;-87
2023/03/31 03:17:34;;;;;;;11.80;4.07;;;14.40;99.90;;;;;;4950895;28;20032;-87
2023/03/31 03:20:01;;;;;;;8.13;3.80;;;14.30;99.90;;;;;;4951185;28;20023;-87
2023/03/31 03:22:27;;;;;;;9.57;3.95;;;14.30;99.90;;;;;;4950841;28;20035;-86
2023/03/31 03:24:52;;;;;;;10.15;4.03;;;14.30;99.90;;;;;;4951466;28;20051;-87
2023/03/31 03:27:21;;;;;;;10.88;4.10;;;14.20;99.90;;;;;;4934668;28;20521;-87
2023/03/31 03:30:08;;;;;;;9.82;3.63;;;14.20;99.90;;;;;;4931395;29;20512;-85
2023/03/31 03:32:34;;;;;;;11.65;4.25;;;14.20;99.90;;;;;;4931853;28;20109;-87
2023/03/31 03:35:01;;;;;;;8.48;3.67;;;14.20;99.90;;;;;;4931922;29;20486;-87
2023/03/31 03:37:27;;;;;;;8.93;3.53;;;14.20;99.90;;;;;;4930694;29;20040;-86
2023/03/31 03:39:53;;;;;;;8.85;3.40;;;14.30;99.90;;;;;;4931942;29;20031;-87
2023/03/31 03:42:19;;;;;;;9.52;3.83;;;14.30;99.90;;;;;;4931969;29;20024;-87
2023/03/31 03:44:44;;;;;;;10.57;4.05;;;14.30;99.90;;;;;;4934280;29;20020;-87
2023/03/31 03:47:10;;;;;;;9.05;3.47;;;14.40;99.90;;;;;;4950628;28;20023;-87
2023/03/31 03:49:39;;;;;;;10.20;3.70;;;14.30;99.90;;;;;;4951163;28;20024;-86
2023/03/31 03:52:05;;;;;;;8.43;3.88;;;14.30;99.90;;;;;;4950589;28;20035;-85
2023/03/31 03:54:31;;;;;;;8.43;3.67;;;14.30;99.90;;;;;;4949666;29;20031;-86
2023/03/31 03:56:57;;;;;;;8.10;3.10;;;14.40;99.90;;;;;;4951273;28;20034;-87
2023/03/31 03:59:23;;;;;;;10.98;3.65;;;14.40;99.90;;;;;;4949467;29;20447;-87
2023/03/31 04:01:48;;;;;;;8.77;3.50;;;14.40;99.90;;;;;;4949638;28;20477;-87
2023/03/31 04:04:14;;;;;;;8.80;3.60;;;14.40;99.90;;;;;;4953336;28;20070;-86
2023/03/31 04:06:40;;;;;;;9.60;2.83;;;14.40;99.90;;;;;;4954056;28;20403;-87
2023/03/31 04:09:06;;;;;;;11.43;3.25;;;14.30;99.90;;;;;;4952973;28;20031;-87
2023/03/31 04:11:31;;;;;;;7.22;2.90;;;14.40;99.90;;;;;;4952844;29;20023;-86
2023/03/31 04:13:57;;;;;;;8.50;3.10;;;14.40;99.90;;;;;;4954144;28;20050;-87
2023/03/31 04:16:24;;;;;;;6.82;3.40;;;14.30;99.90;;;;;;4952286;28;20027;-87
2023/03/31 04:18:55;;;;;;;7.13;3.17;;;14.30;99.90;;;;;;4953827;28;20039;-87
2023/03/31 04:21:22;;;;;;;9.77;3.00;;;14.30;99.90;;;;;;4953858;28;20028;-88
2023/03/31 04:23:49;;;;;;;8.30;3.47;;;14.30;99.90;;;;;;4953340;28;20744;-87
2023/03/31 04:26:17;;;;;;;8.15;3.08;;;14.30;99.90;;;;;;4952925;28;20075;-86
2023/03/31 04:28:49;;;;;;;12.68;3.30;;;14.30;99.90;;;;;;4953485;28;20096;-88
2023/03/31 04:31:23;;;;;;;12.02;3.65;;;14.30;99.90;;;;;;4953250;28;20058;-87
2023/03/31 04:33:53;;;;;;;6.47;2.80;;;14.30;99.90;;;;;;4953082;28;20524;-87
2023/03/31 04:36:19;;;;;;;9.02;3.30;;;14.30;99.90;;;;;;4953302;28;20564;-87
2023/03/31 04:38:46;;;;;;;7.78;3.45;;;14.30;99.90;;;;;;4953381;28;20484;-87
2023/03/31 04:41:15;;;;;;;7.60;2.88;;;14.30;99.90;;;;;;4953125;28;20032;-87
2023/03/31 04:43:41;;;;;;;6.55;3.10;;;14.30;99.90;;;;;;4951589;29;20118;-89
2023/03/31 04:46:06;;;;;;;11.82;3.30;;;14.30;99.90;;;;;;4951730;29;20522;-87
2023/03/31 04:48:32;;;;;;;8.07;3.20;;;14.40;99.90;;;;;;4967674;28;20073;-87
2023/03/31 04:50:58;;;;;;;6.63;3.00;;;14.30;99.90;;;;;;4953489;28;20031;-87
2023/03/31 04:53:24;;;;;;;8.65;2.78;;;14.30;99.90;;;;;;4952900;28;20027;-87
2023/03/31 04:55:50;;;;;;;9.88;3.20;;;14.30;99.90;;;;;;4952857;28;20461;-87
2023/03/31 04:58:16;;;;;;;6.55;2.65;;;14.20;99.90;;;;;;4952955;28;20075;-87
2023/03/31 05:00:41;;;;;;;6.07;3.03;;;14.20;99.90;;;;;;4952931;28;20035;-87
2023/03/31 05:03:08;;;;;;;8.20;2.80;;;14.30;99.90;;;;;;4952734;28;20094;-87
2023/03/31 05:05:34;;;;;;;6.70;2.90;;;14.30;99.90;;;;;;4952713;28;20449;-87
2023/03/31 05:08:00;;;;;;;7.00;2.80;;;14.30;99.90;;;;;;4951652;28;20059;-87
2023/03/31 05:10:26;;;;;;;5.68;2.40;;;14.40;99.90;;;;;;4967658;28;20031;-87
2023/03/31 05:12:51;;;;;;;5.85;2.42;;;14.40;99.90;;;;;;4951204;28;20023;-86
2023/03/31 05:15:17;;;;;;;5.43;2.60;;;14.40;99.90;;;;;;4951993;28;20031;-87
2023/03/31 05:17:43;;;;;;;4.53;2.70;;;14.40;99.90;;;;;;4952445;28;20039;-86
2023/03/31 05:20:10;;;;;;;8.00;2.50;;;14.40;99.90;;;;;;4952682;28;20181;-87
2023/03/31 05:22:37;;;;;;;5.30;2.75;;;14.40;99.90;;;;;;4952664;28;20030;-87
2023/03/31 05:25:03;;;;;;;9.50;2.65;;;14.30;99.90;;;;;;4967283;28;20512;-87
2023/03/31 05:27:29;;;;;;;6.35;2.47;;;14.40;99.90;;;;;;4935656;28;20048;-87
2023/03/31 05:29:55;;;;;;;4.30;2.20;;;14.40;99.90;;;;;;4933764;29;20032;-87
2023/03/31 05:32:20;;;;;;;8.85;2.83;;;14.40;99.90;;;;;;4932008;29;20047;-87
2023/03/31 05:34:46;;;;;;;8.23;2.60;;;14.40;99.90;;;;;;4933414;29;20054;-87
2023/03/31 05:37:12;;;;;;;4.85;2.50;;;14.50;99.90;;;;;;4933091;29;20097;-87
2023/03/31 05:39:37;;;;;;;6.35;2.60;;;14.50;99.90;;;;;;4932014;29;20032;-87
2023/03/31 05:42:04;;;;;;;5.80;2.30;;;14.50;99.90;;;;;;4933145;29;20512;-87
2023/03/31 05:44:30;;;;;;;7.70;2.30;;;14.50;99.90;;;;;;4933265;29;20024;-87
2023/03/31 05:46:56;;;;;;;7.03;2.40;;;14.50;99.90;;;;;;4951326;28;20031;-87
2023/03/31 05:49:21;;;;;;;7.22;2.35;;;14.50;99.90;;;;;;4952244;28;20077;-87
2023/03/31 05:51:47;;;;;;;9.10;2.50;;;14.50;99.90;;;;;;4950744;28;20031;-88
2023/03/31 05:54:13;;;;;;;4.68;2.17;;;14.50;99.90;;;;;;4967051;28;20027;-87
2023/03/31 05:56:39;;;;;;;5.43;2.35;;;14.50;99.90;;;;;;4951755;28;20028;-87
2023/03/31 05:59:05;;;;;;;9.45;2.60;;;14.50;99.90;;;;;;4952360;28;20034;-87
2023/03/31 06:01:31;;;;;;;8.48;2.28;;;14.50;99.90;;;;;;4952788;28;20080;-87
2023/03/31 06:03:56;;;;;;;5.18;2.40;;;14.50;99.90;;;;;;4951982;28;20023;-87
2023/03/31 06:06:22;;;;;;;6.13;2.42;;;14.60;99.90;;;;;;4951814;28;20438;-87
2023/03/31 06:08:49;;;;;;;4.03;2.28;;;14.60;99.90;;;;;;4951329;28;20063;-87
2023/03/31 06:11:18;;;;;;;10.77;2.58;;;14.50;99.90;;;;;;4951282;28;20425;-87
2023/03/31 06:13:44;;;;;;;6.00;2.60;;;14.50;99.90;;;;;;4951716;28;20110;-87
2023/03/31 06:16:11;;;;;;;9.57;2.75;;;14.50;99.90;;;;;;4950684;28;20077;-90
2023/03/31 06:18:37;;;;;;;4.72;2.25;;;14.50;99.90;;;;;;4952998;28;20030;-88
2023/03/31 06:21:03;;;;;;;11.40;2.80;;;14.50;99.90;;;;;;4955758;28;20055;-87
2023/03/31 06:23:30;;;;;;;8.32;2.80;;;14.40;99.90;;;;;;4951174;28;20050;-88
2023/03/31 06:26:05;;;;;;;8.52;3.05;;;14.30;99.90;;;;;;4950767;28;20035;-87
2023/03/31 06:28:32;;;;;;;7.22;3.10;;;13.00;99.90;;;;;;4951892;28;20108;-87
2023/03/31 06:31:03;;;;;;;11.35;3.38;;;12.90;99.90;;;;;;4952056;28;20035;-88
2023/03/31 06:33:30;;;;;;;10.10;3.30;;;13.10;99.90;;;;;;4951723;28;20034;-87
2023/03/31 06:35:56;;;;;;;8.23;3.17;;;13.40;99.90;;;;;;4950357;28;20086;-87
2023/03/31 06:38:22;;;;;;;11.20;3.10;;;13.70;99.90;;;;;;4950359;28;20035;-87
2023/03/31 06:40:48;;;;;;;6.28;2.85;;;13.90;99.90;;;;;;4951888;28;20030;-87
2023/03/31 06:43:14;;;;;;;8.00;2.90;;;14.00;99.90;;;;;;4952067;28;20019;-87
2023/03/31 06:45:40;;;;;;;9.90;2.95;;;14.10;99.90;;;;;;4950207;28;20081;-87
2023/03/31 06:48:05;;;;;;;7.60;3.00;;;14.10;99.90;;;;;;4951414;28;20038;-87
2023/03/31 06:50:31;;;;;;;9.05;3.20;;;14.20;99.90;;;;;;4951565;28;20058;-87
2023/03/31 06:52:57;;;;;;;9.38;3.38;;;14.20;99.90;;;;;;4951269;28;20382;-86
2023/03/31 06:55:23;;;;;;;9.82;3.70;;;14.30;99.90;;;;;;4951563;28;20451;-87
2023/03/31 06:57:49;;;;;;;10.93;2.80;;;14.30;99.90;;;;;;4949921;28;20122;-88
2023/03/31 07:00:15;;;;;;;6.85;2.80;;;14.30;99.90;;;;;;4951350;28;20084;-87
2023/03/31 07:02:40;;;;;;;11.38;3.28;;;14.20;99.90;;;;;;4951130;28;20027;-87
2023/03/31 07:05:06;;;;;;;8.30;3.55;;;14.30;99.90;;;;;;4950976;28;20038;-87
2023/03/31 07:07:33;;;;;;;9.05;3.13;;;14.20;99.90;;;;;;4951605;28;20606;-87
2023/03/31 07:09:58;;;;;;;8.68;3.25;;;14.30;99.90;;;;;;4950782;28;20515;-87
2023/03/31 07:12:24;;;;;;;7.75;3.10;;;14.30;99.90;;;;;;4951027;28;20027;-87
2023/03/31 07:14:50;;;;;;;8.75;3.42;;;14.30;99.90;;;;;;4951941;28;20023;-87
2023/03/31 07:17:16;;;;;;;6.43;3.22;;;14.30;99.90;;;;;;4950862;28;20550;-87
2023/03/31 07:19:41;;;;;;;9.95;3.33;;;14.30;99.90;;;;;;4965830;28;20077;-87
2023/03/31 07:22:08;;;;;;;8.98;3.13;;;14.30;99.90;;;;;;4951416;28;20389;-87
2023/03/31 07:24:33;;;;;;;11.18;3.40;;;14.30;99.90;;;;;;4950564;28;20560;-87
2023/03/31 07:26:59;;;;;;;7.72;3.35;;;14.30;99.90;;;;;;4938554;28;20195;-87
2023/03/31 07:29:25;;;;;;;6.63;2.90;;;14.30;99.90;;;;;;4931849;29;20039;-87
2023/03/31 07:31:51;;;;;;;8.70;3.13;;;14.30;99.90;;;;;;4931691;29;20063;-87
2023/03/31 07:34:17;;;;;;;11.38;3.20;;;14.50;99.90;;;;;;4932075;29;20032;-87
2023/03/31 07:36:43;;;;;;;8.23;3.38;;;14.60;99.90;;;;;;4930312;28;20086;-87
2023/03/31 07:39:08;;;;;;;5.30;3.10;;;14.50;99.90;;;;;;4934427;29;20039;-87
2023/03/31 07:41:34;;;;;;;8.80;3.28;;;14.60;99.90;;;;;;4935136;29;20027;-87
2023/03/31 07:44:00;;;;;;;9.68;3.30;;;14.90;99.90;;;;;;4933637;29;20363;-87
2023/03/31 07:46:27;;;;;;;10.70;3.20;;;15.00;99.90;;;;;;4950472;29;20122;-87
2023/03/31 07:48:54;;;;;;;8.40;3.97;;;15.00;99.90;;;;;;4954012;28;20047;-87
2023/03/31 07:51:23;;;;;;;8.63;3.30;;;15.10;99.90;;;;;;4953903;28;20085;-87
2023/03/31 07:53:51;;;;;;;7.22;3.70;;;15.00;99.90;;;;;;4953790;28;20027;-88
2023/03/31 07:56:18;;;;;;;8.27;3.38;;;14.90;99.90;;;;;;4952608;28;20042;-87
2023/03/31 07:58:45;;;;;;;12.05;4.00;;;14.70;99.90;;;;;;4953877;28;20481;-87
2023/03/31 08:01:15;;;;;;;10.57;4.45;;;14.70;99.90;;;;;;4953868;28;20115;-87
2023/03/31 08:03:41;;;;;;;10.00;4.38;;;14.70;99.90;;;;;;4954386;28;20019;-87
2023/03/31 08:06:07;;;;;;;8.93;4.22;;;14.60;99.90;;;;;;4968708;28;20374;-87
2023/03/31 08:08:33;;;;;;;8.63;4.38;;;14.70;99.90;;;;;;4953903;28;20031;-87
2023/03/31 08:10:58;;;;;;;9.48;4.57;;;14.70;99.90;;;;;;4953983;28;20031;-87
2023/03/31 08:13:24;;;;;;;10.68;4.88;;;14.80;99.90;;;;;;4953730;28;20031;-87
2023/03/31 08:15:50;;;;;;;9.70;5.03;;;14.80;99.90;;;;;;4953618;28;20031;-88
2023/03/31 08:18:16;;;;;;;8.68;5.18;;;14.70;99.90;;;;;;4952793;29;20061;-87
2023/03/31 08:20:41;;;;;;;11.02;5.50;;;14.80;99.90;;;;;;4968613;28;20468;-87
2023/03/31 08:23:10;;;;;;;11.40;6.13;;;14.80;99.90;;;;;;4953681;28;20881;-87
2023/03/31 08:25:36;;;;;;;10.35;5.25;;;14.90;99.90;;;;;;4951442;28;20046;-87
2023/03/31 08:28:01;;;;;;;12.20;5.65;;;15.20;99.90;;;;;;4934338;29;20046;-87
2023/03/31 08:30:27;;;;;;;10.52;5.50;;;15.30;99.90;;;;;;4934278;29;20028;-88
2023/03/31 08:32:52;;;;;;;9.60;5.25;;;15.40;99.90;;;;;;4932931;29;20027;-87
2023/03/31 08:35:18;;;;;;;10.80;5.13;;;15.50;99.90;;;;;;4933025;29;20297;-87
2023/03/31 08:37:44;;;;;;;19.27;5.07;;;15.80;99.90;;;;;;4934160;29;20094;-87
2023/03/31 08:40:20;;;;;;;9.20;4.88;;;16.00;99.90;;;;;;4934163;29;20501;-87
2023/03/31 08:42:51;;;;;;;14.50;5.53;;;15.90;99.90;;;;;;4932764;29;20074;-87
2023/03/31 08:45:22;;;;;;;10.80;5.72;;;15.90;99.90;;;;;;4938718;29;20556;-87
2023/03/31 08:47:52;;;;;;;10.85;5.13;;;16.30;99.90;;;;;;4953174;28;20031;-87
2023/03/31 08:50:25;;;;;;;14.68;5.82;;;16.10;99.90;;;;;;4952924;28;20034;-87
2023/03/31 08:53:02;;;;;;;9.30;5.13;;;16.10;99.90;;;;;;4953397;28;20031;-87
2023/03/31 08:55:36;;;;;;;8.23;5.40;;;15.90;99.90;;;;;;4952788;28;20034;-87
2023/03/31 08:58:26;;;;;;;9.18;4.78;;;16.00;99.90;;;;;;4952792;28;20043;-87
2023/03/31 09:01:12;;;;;;;9.60;5.43;;;16.00;99.90;;;;;;4953020;28;20489;-87
2023/03/31 09:04:12;;;;;;;11.63;5.70;;;16.10;99.90;;;;;;4951676;28;20034;-87
2023/03/31 09:06:58;;;;;;;12.82;5.57;;;16.80;99.90;;;;;;4952324;28;20031;-87
2023/03/31 09:09:37;;;;;;;9.88;4.93;;;17.00;99.90;;;;;;4953219;28;20038;-87
2023/03/31 09:12:10;;;;;;;7.72;4.35;;;17.00;99.90;;;;;;4952847;28;20035;-87
2023/03/31 09:14:45;;;;;;;9.52;5.18;;;16.80;99.90;;;;;;4967866;28;20442;-88
2023/03/31 09:17:22;;;;;;;8.10;4.88;;;17.00;99.90;;;;;;4952557;28;20043;-87
2023/03/31 09:19:51;;;;;;;12.48;5.47;;;17.00;99.90;;;;;;4967246;28;20019;-87
2023/03/31 09:22:23;;;;;;;9.13;5.13;;;16.80;99.90;;;;;;4953623;28;20499;-87
2023/03/31 09:25:02;;;;;;;6.88;4.72;;;16.90;99.90;;;;;;4952707;28;20023;-87
2023/03/31 09:27:31;;;;;;;9.80;4.95;;;16.50;99.90;;;;;;4936558;28;20519;-87
2023/03/31 09:30:09;;;;;;;8.50;5.07;;;16.30;99.90;;;;;;4933305;29;20494;-87
2023/03/31 09:32:37;;;;;;;12.57;5.10;;;16.60;99.90;;;;;;4933677;29;20497;-87
2023/03/31 09:35:24;;;;;;;9.20;5.00;;;16.50;99.90;;;;;;4931825;29;20023;-87
2023/03/31 09:37:51;;;;;;;11.15;4.95;;;16.80;99.90;;;;;;4933634;29;20047;-87
2023/03/31 09:40:22;;;;;;;8.02;4.95;;;17.30;99.90;;;;;;4931777;29;20028;-88
2023/03/31 09:42:56;;;;;;;8.98;4.82;;;17.20;99.90;;;;;;4933121;28;20040;-87
2023/03/31 09:45:22;;;;;;;7.97;4.97;;;17.60;99.90;;;;;;4938941;29;20026;-87
2023/03/31 09:47:55;;;;;;;9.55;5.15;;;18.10;99.90;;;;;;4951989;28;20027;-88
2023/03/31 09:50:22;;;;;;;7.57;4.88;;;19.70;99.90;;;;;;4952154;28;20493;-87
2023/03/31 09:52:50;;;;;;;9.32;4.35;;;22.00;99.90;;;;;;4952057;28;20028;-87
2023/03/31 09:55:23;;;;;;;8.77;5.28;;;20.00;99.90;;;;;;4952514;28;20039;-87
2023/03/31 09:57:49;;;;;;;9.68;5.05;;;22.70;99.90;;;;;;4952034;28;20126;-87
2023/03/31 10:00:18;;;;;;;9.63;5.53;;;21.40;99.90;;;;;;4951311;28;20149;-88
2023/03/31 10:02:52;;;;;;;8.25;5.20;;;19.40;99.90;;;;;;4951605;28;20142;-88
2023/03/31 10:05:31;;;;;;;6.97;5.25;;;19.30;99.90;;;;;;4952315;28;20355;-88
2023/03/31 10:08:33;;;;;;;8.63;5.15;;;19.40;99.90;;;;;;4951926;28;20051;-87
2023/03/31 10:11:01;;;;;;;10.27;4.97;;;19.00;99.90;;;;;;4950719;29;20405;-87
2023/03/31 10:13:57;;;;;;;10.05;5.53;;;19.00;99.90;;;;;;4952013;28;20031;-87
2023/03/31 10:16:28;;;;;;;7.32;5.05;;;19.70;99.90;;;;;;4951863;28;20024;-87
2023/03/31 10:18:53;;;;;;;7.03;5.38;;;18.90;99.90;;;;;;4967000;28;20484;-87
2023/03/31 10:21:37;;;;;;;8.63;5.50;;;19.10;99.90;;;;;;4951810;28;20153;-87
2023/03/31 10:24:08;;;;;;;10.13;5.75;;;18.70;99.90;;;;;;4966780;28;20031;-87
2023/03/31 10:26:34;;;;;;;10.75;5.57;;;18.60;99.90;;;;;;4951459;28;20062;-87
2023/03/31 10:29:00;;;;;;;10.30;5.57;;;18.50;99.90;;;;;;4951611;28;20366;-87
2023/03/31 10:31:33;;;;;;;10.50;5.38;;;18.60;99.90;;;;;;4951414;28;20039;-87
2023/03/31 10:34:05;;;;;;;10.15;5.55;;;19.00;99.90;;;;;;4950229;29;20034;-87
2023/03/31 10:36:31;;;;;;;9.35;5.43;;;18.90;99.90;;;;;;4950025;28;20148;-87
2023/03/31 10:38:57;;;;;;;8.63;5.32;;;19.30;99.90;;;;;;4950263;29;20389;-87
2023/03/31 10:41:29;;;;;;;10.43;5.53;;;19.60;99.90;;;;;;4951520;28;20031;-88
2023/03/31 10:44:00;;;;;;;10.38;5.60;;;20.40;99.90;;;;;;4950530;29;20034;-87
2023/03/31 10:46:48;;;;;;;10.02;5.13;;;23.70;99.90;;;;;;4950811;28;20038;-87
2023/03/31 10:49:21;;;;;;;7.63;5.72;;;20.80;99.90;;;;;;4951496;28;20034;-88
2023/03/31 10:51:59;;;;;;;10.48;5.60;;;20.10;99.90;;;;;;4951112;28;20027;-88
2023/03/31 10:54:25;;;;;;;8.27;5.53;;;19.00;99.90;;;;;;4951182;28;20042;-88
2023/03/31 10:57:02;;;;;;;9.68;6.03;;;20.40;99.90;;;;;;4951244;28;20393;-88
2023/03/31 10:59:50;;;;;;;9.25;6.18;;;19.10;99.90;;;;;;4950245;28;20133;-87
2023/03/31 11:02:39;;;;;;;6.97;5.25;;;18.70;99.90;;;;;;4950959;28;20035;-87
2023/03/31 11:05:16;;;;;;;10.68;5.90;;;19.30;99.90;;;;;;4951040;28;20515;-87
2023/03/31 11:07:42;;;;;;;9.82;5.82;;;18.80;99.90;;;;;;4951164;28;20032;-87
2023/03/31 11:10:45;;;;;;;8.45;5.90;;;20.00;99.90;;;;;;4951418;28;20482;-87
2023/03/31 11:13:39;;;;;;;6.60;4.85;;;19.20;99.90;;;;;;4954245;28;20034;-87
2023/03/31 11:16:29;;;;;;;9.75;5.25;;;22.00;99.90;;;;;;4954156;28;20019;-87
2023/03/31 11:19:02;;;;;;;8.88;5.40;;;22.70;99.90;;;;;;4954341;28;20055;-88
2023/03/31 11:21:38;;;;;;;7.10;4.65;;;24.60;99.90;;;;;;4954692;28;20066;-87
2023/03/31 11:24:27;;;;;;;7.93;5.22;;;26.30;99.90;;;;;;4954463;28;20023;-88
2023/03/31 11:27:36;;;;;;;7.88;4.72;;;26.90;99.90;;;;;;4968945;28;20051;-88
2023/03/31 11:30:24;;;;;;;8.25;4.70;;;23.50;99.90;;;;;;4953899;28;20404;-88
2023/03/31 11:32:55;;;;;;;7.47;5.13;;;23.10;99.90;;;;;;4954269;28;20035;-86
2023/03/31 11:35:21;;;;;;;6.63;4.88;;;21.30;99.90;;;;;;4954059;28;20035;-85
2023/03/31 11:38:10;;;;;;;7.32;5.65;;;20.20;99.90;;;;;;4953572;28;20472;-86
2023/03/31 11:41:06;;;;;;;6.68;5.38;;;19.80;99.90;;;;;;4953897;28;20039;-85
2023/03/31 11:43:51;;;;;;;8.77;5.53;;;19.40;99.90;;;;;;4953950;28;20031;-85
2023/03/31 11:46:49;;;;;;;11.73;5.40;;;19.70;99.90;;;;;;4953638;28;20035;-85
2023/03/31 11:49:37;;;;;;;8.18;5.05;;;20.50;99.90;;;;;;4953434;28;20039;-85
2023/03/31 11:52:14;;;;;;;6.43;4.93;;;22.10;99.90;;;;;;4954202;28;20457;-86
2023/03/31 11:54:55;;;;;;;8.15;4.95;;;24.50;99.90;;;;;;4953685;28;20094;-85
2023/03/31 11:57:38;;;;;;;8.20;5.20;;;25.10;99.90;;;;;;4953693;28;20043;-85
2023/03/31 12:00:17;;;;;;;8.48;4.93;;;25.20;99.90;;;;;;4953437;28;20023;-86
2023/03/31 12:02:53;;;;;;;6.78;5.00;;;25.20;99.90;;;;;;4953653;28;20456;-85
2023/03/31 12:05:23;;;;;;;7.00;5.00;;;25.20;99.90;;;;;;4953405;28;20020;-86
2023/03/31 12:08:13;;;;;;;5.72;5.00;;;26.90;99.90;;;;;;4953490;28;20035;-85
2023/03/31 12:11:01;;;;;;;8.18;4.72;;;23.40;99.90;;;;;;4953901;28;20023;-86
2023/03/31 12:13:57;;;;;;;8.23;5.05;;;23.10;99.90;;;;;;4953004;28;20047;-86
2023/03/31 12:16:44;;;;;;;7.82;5.00;;;22.70;99.90;;;;;;4953214;28;20027;-85
2023/03/31 12:19:35;;;;;;;8.18;5.60;;;23.10;99.90;;;;;;4953101;28;20051;-86
2023/03/31 12:22:16;;;;;;;7.20;5.30;;;25.30;99.90;;;;;;4953378;28;20027;-86
2023/03/31 12:24:41;;;;;;;6.70;5.22;;;23.30;99.90;;;;;;4953340;28;20020;-85
2023/03/31 12:27:08;;;;;;;7.30;4.78;;;21.50;99.90;;;;;;4938391;28;20192;-85
2023/03/31 12:29:48;;;;;;;7.97;5.03;;;20.80;99.90;;;;;;4933824;29;20024;-85
2023/03/31 12:32:21;;;;;;;8.25;5.40;;;22.70;99.90;;;;;;4934523;29;20027;-85
2023/03/31 12:35:14;;;;;;;7.68;5.50;;;21.20;99.90;;;;;;4933728;29;20035;-85
2023/03/31 12:37:53;;;;;;;7.35;5.28;;;20.40;99.90;;;;;;4933837;29;20177;-85
2023/03/31 12:40:41;;;;;;;7.53;5.20;;;19.90;99.90;;;;;;4934440;29;20551;-85
2023/03/31 12:43:06;;;;;;;9.27;5.28;;;20.00;99.90;;;;;;4932348;29;20420;-85
2023/03/31 12:45:53;;;;;;;6.65;3.88;;;20.40;99.90;;;;;;4942806;29;20026;-85
2023/03/31 12:48:44;;;;;;;6.68;3.83;;;20.90;99.90;;;;;;4951560;29;20561;-85
2023/03/31 12:51:23;;;;;;;8.35;4.60;;;22.20;99.90;;;;;;4952635;28;20030;-85
2023/03/31 12:54:00;;;;;;;8.38;4.32;;;22.90;99.90;;;;;;4952626;28;20536;-85
2023/03/31 12:56:26;;;;;;;8.98;4.30;;;22.40;99.90;;;;;;4952262;28;20089;-85
2023/03/31 12:58:51;;;;;;;10.52;4.60;;;21.60;99.90;;;;;;4951830;29;20416;-85
2023/03/31 13:01:22;;;;;;;8.73;4.90;;;21.20;99.90;;;;;;4953179;28;20024;-84
2023/03/31 13:03:52;;;;;;;7.93;4.88;;;20.70;99.90;;;;;;4952686;28;20032;-86
2023/03/31 13:06:26;;;;;;;9.10;5.25;;;20.00;99.90;;;;;;4952735;28;20030;-85
2023/03/31 13:08:56;;;;;;;9.65;5.25;;;20.20;99.90;;;;;;4952569;28;20042;-85